Time;durP1;ratioP1;P1;durP2;ratioP2;P2;SDS_P1;SDS_P2;PMS_P1;PMS_P2;Temp;Humidity;BMP_temperature;BMP_pressure;BME280_temperature;BME280_humidity;BME280_pressure;Samples;Min_cycle;Max_cycle;Signal;HPM_P1;HPM_P2
2022/10/09 00:01:08;;;;;;;2.23;2.03;;;7.10;97.30;;;;;;5039474;28;20446;-80
2022/10/09 00:03:34;;;;;;;1.93;1.50;;;7.10;97.30;;;;;;5040741;28;20207;-83
2022/10/09 00:06:00;;;;;;;2.90;2.73;;;7.10;97.30;;;;;;5033025;28;20423;-83
2022/10/09 00:08:26;;;;;;;14.07;3.97;;;7.10;97.30;;;;;;5034123;28;20434;-82
2022/10/09 00:10:52;;;;;;;4.50;2.30;;;7.10;97.30;;;;;;5039401;28;20501;-77
2022/10/09 00:13:18;;;;;;;2.00;1.73;;;7.10;97.30;;;;;;5039920;28;20212;-82
2022/10/09 00:15:44;;;;;;;2.47;2.30;;;7.10;97.30;;;;;;5039545;28;20205;-82
2022/10/09 00:18:12;;;;;;;1.40;1.33;;;7.10;97.30;;;;;;5028862;28;20450;-82
2022/10/09 00:20:40;;;;;;;2.73;2.53;;;7.00;97.30;;;;;;5025488;28;20497;-83
2022/10/09 00:23:06;;;;;;;1.50;1.40;;;7.00;97.30;;;;;;5034487;28;20478;-83
2022/10/09 00:25:32;;;;;;;3.40;2.03;;;7.00;97.30;;;;;;5039162;28;20413;-78
2022/10/09 00:27:59;;;;;;;2.40;1.30;;;7.10;97.30;;;;;;5039301;28;20560;-83
2022/10/09 00:30:25;;;;;;;1.60;1.50;;;7.10;97.30;;;;;;5038955;28;20457;-77
2022/10/09 00:32:51;;;;;;;1.90;1.60;;;7.00;97.30;;;;;;5039122;28;20450;-82
2022/10/09 00:35:17;;;;;;;3.73;3.53;;;7.00;97.30;;;;;;5037943;28;20418;-80
2022/10/09 00:37:43;;;;;;;1.67;1.40;;;6.90;97.30;;;;;;5038345;28;20468;-82
2022/10/09 00:40:08;;;;;;;2.37;2.17;;;6.90;97.30;;;;;;5051316;28;20239;-82
2022/10/09 00:42:34;;;;;;;2.70;2.17;;;6.80;97.30;;;;;;5032436;28;20183;-78
2022/10/09 00:45:01;;;;;;;1.83;1.73;;;6.80;97.30;;;;;;5038898;28;20194;-78
2022/10/09 00:47:36;;;;;;;1.60;1.50;;;6.70;97.30;;;;;;5034113;28;20234;-78
2022/10/09 00:50:20;;;;;;;2.30;2.10;;;6.70;97.30;;;;;;5031514;28;20493;-78
2022/10/09 00:52:49;;;;;;;5.73;2.40;;;6.70;97.30;;;;;;5020291;28;20945;-83
2022/10/09 00:55:15;;;;;;;2.13;1.97;;;6.60;97.30;;;;;;5029492;28;20436;-83
2022/10/09 00:57:54;;;;;;;1.60;1.60;;;6.60;97.30;;;;;;5037535;28;20422;-78
2022/10/09 01:00:20;;;;;;;3.03;2.13;;;6.60;97.30;;;;;;5025113;28;20447;-83
2022/10/09 01:02:48;;;;;;;2.10;1.73;;;6.50;97.30;;;;;;5038693;28;20703;-77
2022/10/09 01:05:14;;;;;;;2.97;2.60;;;6.50;97.30;;;;;;5038212;28;20426;-83
2022/10/09 01:08:01;;;;;;;1.53;1.43;;;6.50;97.30;;;;;;5056120;28;20414;-83
2022/10/09 01:10:45;;;;;;;2.40;2.20;;;6.50;97.30;;;;;;5037571;28;20538;-83
2022/10/09 01:13:27;;;;;;;1.90;1.83;;;6.60;97.30;;;;;;5037762;28;20422;-77
2022/10/09 01:16:00;;;;;;;3.00;1.87;;;6.60;97.30;;;;;;5024633;28;20426;-82
2022/10/09 01:19:09;;;;;;;1.43;1.33;;;6.60;97.30;;;;;;5038514;28;20418;-83
2022/10/09 01:21:51;;;;;;;2.47;2.20;;;6.50;97.30;;;;;;4976127;28;20967;-82
2022/10/09 01:24:35;;;;;;;2.50;2.30;;;6.50;97.30;;;;;;5055931;28;21102;-82
2022/10/09 01:27:17;;;;;;;3.60;2.00;;;6.40;97.30;;;;;;5038504;28;20532;-83
2022/10/09 01:29:53;;;;;;;3.10;1.60;;;6.40;97.30;;;;;;5026990;28;20467;-78
2022/10/09 01:32:22;;;;;;;2.20;1.67;;;6.40;97.30;;;;;;5038317;28;20469;-83
2022/10/09 01:34:50;;;;;;;1.73;1.50;;;6.30;97.30;;;;;;5055850;28;20966;-84
2022/10/09 01:37:19;;;;;;;2.20;1.53;;;6.30;97.30;;;;;;5055792;28;20479;-80
2022/10/09 01:39:47;;;;;;;2.47;2.27;;;6.30;97.30;;;;;;5038095;28;20478;-80
2022/10/09 01:42:14;;;;;;;1.67;1.57;;;6.20;97.30;;;;;;5025295;28;20436;-80
2022/10/09 01:44:39;;;;;;;1.70;1.60;;;6.20;97.30;;;;;;5025599;28;20491;-83
2022/10/09 01:47:05;;;;;;;2.03;1.80;;;6.20;97.30;;;;;;5053083;28;20472;-78
2022/10/09 01:49:47;;;;;;;4.33;4.07;;;6.20;97.30;;;;;;5037124;28;20188;-80
2022/10/09 01:52:24;;;;;;;2.40;2.20;;;6.20;97.30;;;;;;5037586;28;20444;-82
2022/10/09 01:55:17;;;;;;;1.70;1.60;;;6.20;97.30;;;;;;5024821;28;20419;-78
2022/10/09 01:58:04;;;;;;;1.90;1.80;;;6.10;97.30;;;;;;5037685;28;20522;-80
2022/10/09 02:00:35;;;;;;;1.73;1.63;;;6.10;97.30;;;;;;5024990;28;20910;-84
2022/10/09 02:03:02;;;;;;;3.47;1.60;;;6.10;97.30;;;;;;5036879;28;20466;-78
2022/10/09 02:05:30;;;;;;;2.30;2.10;;;6.10;97.30;;;;;;5036710;28;21069;-77
2022/10/09 02:07:57;;;;;;;1.97;1.87;;;6.00;97.30;;;;;;5036613;28;20465;-78
2022/10/09 02:10:24;;;;;;;1.60;1.50;;;6.00;97.30;;;;;;5055098;28;20442;-82
2022/10/09 02:12:54;;;;;;;1.57;1.47;;;6.00;97.30;;;;;;5036874;28;20423;-83
2022/10/09 02:15:29;;;;;;;1.73;1.63;;;6.00;97.30;;;;;;5033644;28;20480;-82
2022/10/09 02:18:03;;;;;;;2.87;2.67;;;5.90;97.30;;;;;;5036014;28;20433;-77
2022/10/09 02:20:38;;;;;;;1.63;1.40;;;5.90;97.30;;;;;;5037228;28;20452;-83
2022/10/09 02:23:06;;;;;;;2.40;2.23;;;5.90;97.30;;;;;;5020422;28;20478;-78
2022/10/09 02:25:33;;;;;;;1.80;1.70;;;5.90;97.30;;;;;;5034669;28;20466;-78
2022/10/09 02:27:59;;;;;;;3.53;3.00;;;5.90;97.30;;;;;;5033842;28;20463;-78
2022/10/09 02:30:30;;;;;;;1.70;1.60;;;5.90;97.30;;;;;;5021239;28;20440;-83
2022/10/09 02:32:55;;;;;;;1.77;1.67;;;5.80;97.30;;;;;;5033513;28;20926;-81
2022/10/09 02:35:21;;;;;;;2.97;1.73;;;5.80;97.30;;;;;;5033433;28;20430;-83
2022/10/09 02:37:48;;;;;;;1.50;1.40;;;5.70;97.30;;;;;;5033844;28;20186;-82
2022/10/09 02:40:13;;;;;;;1.10;1.00;;;5.70;97.30;;;;;;5032763;28;20556;-79
2022/10/09 02:42:39;;;;;;;1.50;1.40;;;5.70;97.30;;;;;;5033026;28;20420;-82
2022/10/09 02:45:05;;;;;;;1.20;1.10;;;5.70;97.30;;;;;;5032814;28;20828;-82
2022/10/09 02:47:31;;;;;;;2.27;1.57;;;5.70;97.30;;;;;;5033026;28;20177;-82
2022/10/09 02:49:56;;;;;;;2.33;1.33;;;5.60;97.30;;;;;;5032852;28;20419;-79
2022/10/09 02:52:22;;;;;;;2.70;1.40;;;5.60;97.30;;;;;;5033027;28;20184;-78
2022/10/09 02:54:47;;;;;;;2.50;2.30;;;5.60;97.30;;;;;;5031946;28;20287;-84
2022/10/09 02:57:13;;;;;;;1.57;1.47;;;5.60;97.30;;;;;;5020523;28;20295;-83
2022/10/09 02:59:38;;;;;;;2.50;2.10;;;5.60;97.30;;;;;;5033112;28;20184;-81
2022/10/09 03:02:04;;;;;;;1.60;1.50;;;5.60;97.30;;;;;;5032900;28;20215;-82
2022/10/09 03:04:29;;;;;;;4.30;3.23;;;5.60;97.30;;;;;;5019528;28;20208;-77
2022/10/09 03:06:58;;;;;;;2.40;1.93;;;5.60;97.30;;;;;;5033018;28;20272;-82
2022/10/09 03:09:23;;;;;;;1.20;1.10;;;5.60;97.30;;;;;;5032899;28;20184;-80
2022/10/09 03:11:49;;;;;;;1.63;1.53;;;5.60;97.30;;;;;;5032979;28;20454;-78
2022/10/09 03:14:14;;;;;;;1.50;1.40;;;5.70;97.30;;;;;;5032595;28;20188;-77
2022/10/09 03:16:42;;;;;;;2.20;2.00;;;5.70;97.30;;;;;;5032943;28;20184;-81
2022/10/09 03:19:07;;;;;;;6.00;1.87;;;5.60;97.30;;;;;;5032383;28;20187;-77
2022/10/09 03:21:33;;;;;;;3.43;1.87;;;5.60;97.30;;;;;;5032642;28;20482;-78
2022/10/09 03:23:58;;;;;;;2.80;2.60;;;5.60;97.30;;;;;;5032768;28;20207;-83
2022/10/09 03:26:26;;;;;;;2.70;1.90;;;5.60;97.30;;;;;;5033850;28;20656;-82
2022/10/09 03:28:53;;;;;;;2.63;1.40;;;5.60;97.30;;;;;;5031199;28;20176;-80
2022/10/09 03:31:21;;;;;;;3.00;2.03;;;5.60;97.30;;;;;;5020523;28;20889;-80
2022/10/09 03:33:46;;;;;;;19.93;3.47;;;5.50;97.30;;;;;;5033700;28;20439;-79
2022/10/09 03:36:12;;;;;;;1.87;1.60;;;5.50;97.30;;;;;;5032568;28;20488;-83
2022/10/09 03:38:38;;;;;;;3.30;2.40;;;5.40;97.30;;;;;;5032402;28;20230;-83
2022/10/09 03:41:05;;;;;;;1.50;1.40;;;5.40;97.30;;;;;;5032779;28;20207;-77
2022/10/09 03:43:31;;;;;;;1.67;1.60;;;5.40;97.30;;;;;;5033490;28;20514;-81
2022/10/09 03:45:57;;;;;;;2.23;2.13;;;5.40;97.30;;;;;;5032622;28;20426;-78
2022/10/09 03:48:23;;;;;;;7.33;2.53;;;5.40;97.30;;;;;;5032059;28;20427;-82
2022/10/09 03:50:48;;;;;;;1.70;1.60;;;5.30;97.30;;;;;;5024640;28;20254;-83
2022/10/09 03:53:15;;;;;;;3.43;2.27;;;5.30;97.30;;;;;;5026745;28;20423;-82
2022/10/09 03:55:41;;;;;;;2.50;2.30;;;5.30;97.30;;;;;;5021313;28;20188;-78
2022/10/09 03:58:06;;;;;;;1.30;1.20;;;5.30;97.30;;;;;;5032620;28;20427;-80
2022/10/09 04:00:32;;;;;;;1.70;1.60;;;5.30;97.30;;;;;;5020706;28;20434;-83
2022/10/09 04:02:58;;;;;;;1.50;1.40;;;5.30;97.30;;;;;;5032096;28;20184;-77
2022/10/09 04:05:23;;;;;;;3.13;2.83;;;5.20;97.30;;;;;;5032732;28;20419;-79
2022/10/09 04:07:49;;;;;;;1.40;1.30;;;5.20;97.30;;;;;;5032058;28;20774;-82
2022/10/09 04:10:14;;;;;;;1.40;1.30;;;5.20;97.30;;;;;;5032517;28;20204;-80
2022/10/09 04:12:40;;;;;;;1.50;1.40;;;5.10;97.30;;;;;;5032419;28;20180;-80
2022/10/09 04:15:07;;;;;;;2.73;2.53;;;5.10;97.30;;;;;;5032308;28;20985;-83
2022/10/09 04:17:32;;;;;;;1.83;1.77;;;5.10;97.30;;;;;;5032489;28;20177;-78
2022/10/09 04:19:58;;;;;;;4.23;2.43;;;5.10;97.30;;;;;;5033666;28;20462;-77
2022/10/09 04:22:24;;;;;;;1.93;1.83;;;5.00;97.30;;;;;;5031903;28;20263;-82
2022/10/09 04:24:50;;;;;;;2.23;1.50;;;5.00;97.30;;;;;;5031499;28;20225;-77
2022/10/09 04:27:15;;;;;;;1.60;1.43;;;4.90;97.30;;;;;;5032170;28;20430;-82
2022/10/09 04:29:41;;;;;;;2.13;1.97;;;4.90;97.30;;;;;;5034253;28;20188;-82
2022/10/09 04:32:06;;;;;;;1.83;1.73;;;4.80;97.30;;;;;;5035776;28;20222;-83
2022/10/09 04:34:32;;;;;;;2.80;2.60;;;4.80;97.30;;;;;;5036475;28;20180;-83
2022/10/09 04:36:58;;;;;;;1.60;1.50;;;4.80;97.30;;;;;;5035649;28;20172;-82
2022/10/09 04:39:23;;;;;;;3.10;1.40;;;4.80;97.30;;;;;;5052696;28;20267;-79
2022/10/09 04:41:49;;;;;;;2.27;1.83;;;4.80;97.30;;;;;;5052240;28;20279;-83
2022/10/09 04:44:14;;;;;;;1.70;1.60;;;4.80;97.30;;;;;;5035812;28;20675;-81
2022/10/09 04:46:40;;;;;;;1.90;1.73;;;4.80;97.30;;;;;;5030749;28;20177;-80
2022/10/09 04:49:06;;;;;;;1.50;1.40;;;4.70;97.30;;;;;;5036704;28;20180;-80
2022/10/09 04:51:31;;;;;;;4.30;2.30;;;4.70;97.30;;;;;;5052546;28;20189;-82
2022/10/09 04:54:01;;;;;;;2.37;1.50;;;4.70;97.30;;;;;;5035730;28;20573;-81
2022/10/09 04:56:26;;;;;;;2.97;2.30;;;4.70;97.30;;;;;;5036030;28;20181;-81
2022/10/09 04:58:52;;;;;;;1.60;1.50;;;4.70;97.30;;;;;;5035941;28;20437;-82
2022/10/09 05:01:25;;;;;;;1.83;1.70;;;4.70;97.30;;;;;;5035623;28;20285;-81
2022/10/09 05:03:51;;;;;;;1.70;1.60;;;4.60;97.30;;;;;;5035570;28;20299;-83
2022/10/09 05:06:17;;;;;;;1.30;1.20;;;4.60;97.30;;;;;;5041377;28;20415;-81
2022/10/09 05:08:43;;;;;;;3.70;1.87;;;4.60;97.30;;;;;;5027833;28;20446;-83
2022/10/09 05:11:12;;;;;;;3.03;2.40;;;4.60;97.30;;;;;;5030662;28;20969;-82
2022/10/09 05:13:40;;;;;;;2.40;1.53;;;4.60;97.30;;;;;;5026950;28;20432;-78
2022/10/09 05:16:12;;;;;;;3.23;1.73;;;4.60;97.30;;;;;;5031301;28;20494;-78
2022/10/09 05:18:42;;;;;;;4.10;3.73;;;4.50;97.30;;;;;;5032490;28;20773;-77
2022/10/09 05:21:08;;;;;;;1.67;1.57;;;4.50;97.30;;;;;;5033613;28;20444;-81
2022/10/09 05:23:34;;;;;;;2.57;1.70;;;4.50;97.30;;;;;;5039124;28;20545;-84
2022/10/09 05:26:13;;;;;;;4.43;2.60;;;4.50;97.30;;;;;;5037525;28;20458;-83
2022/10/09 05:28:39;;;;;;;2.13;1.90;;;4.50;97.30;;;;;;5026514;28;20418;-79
2022/10/09 05:31:07;;;;;;;2.30;2.10;;;4.50;97.30;;;;;;5029408;28;20480;-83
2022/10/09 05:33:33;;;;;;;1.63;1.53;;;4.50;97.30;;;;;;5036869;28;20715;-80
2022/10/09 05:36:01;;;;;;;1.80;1.70;;;4.50;97.30;;;;;;5034914;28;20509;-83
2022/10/09 05:38:27;;;;;;;2.80;1.30;;;4.50;97.30;;;;;;5037207;28;20423;-83
2022/10/09 05:40:54;;;;;;;1.60;1.50;;;4.50;97.30;;;;;;5036808;28;20434;-78
2022/10/09 05:43:22;;;;;;;1.90;1.57;;;4.40;97.30;;;;;;5051492;28;20463;-83
2022/10/09 05:45:47;;;;;;;1.60;1.50;;;4.40;97.30;;;;;;5037191;28;20468;-83
2022/10/09 05:48:13;;;;;;;2.80;2.60;;;4.40;97.30;;;;;;5036710;28;20418;-84
2022/10/09 05:50:38;;;;;;;1.80;1.70;;;4.40;97.30;;;;;;5036876;28;20192;-78
2022/10/09 05:53:04;;;;;;;1.87;1.77;;;4.40;97.30;;;;;;5051810;28;20199;-83
2022/10/09 05:55:29;;;;;;;1.30;1.20;;;4.40;97.30;;;;;;5044559;28;20180;-81
2022/10/09 05:57:55;;;;;;;1.50;1.40;;;4.40;97.30;;;;;;5036858;28;20186;-78
2022/10/09 06:00:20;;;;;;;2.00;1.90;;;4.40;97.30;;;;;;5051672;28;20207;-82
2022/10/09 06:02:46;;;;;;;1.80;1.70;;;4.50;97.30;;;;;;5049275;28;20655;-84
2022/10/09 06:05:11;;;;;;;1.63;1.60;;;4.50;97.30;;;;;;5036730;28;20227;-82
2022/10/09 06:07:37;;;;;;;2.30;1.70;;;4.50;97.30;;;;;;5043815;28;20184;-84
2022/10/09 06:10:04;;;;;;;5.53;1.70;;;4.50;97.30;;;;;;5032744;28;20176;-81
2022/10/09 06:12:29;;;;;;;4.63;2.50;;;4.60;97.30;;;;;;5028295;28;20639;-83
2022/10/09 06:14:55;;;;;;;2.13;1.97;;;4.60;97.30;;;;;;5032920;28;20418;-80
2022/10/09 06:17:20;;;;;;;1.90;1.60;;;4.70;97.30;;;;;;5052264;28;20195;-79
2022/10/09 06:19:46;;;;;;;3.37;3.00;;;4.70;97.30;;;;;;5028964;28;20184;-82
2022/10/09 06:22:11;;;;;;;1.40;1.33;;;4.70;97.30;;;;;;5031624;28;20297;-82
2022/10/09 06:24:37;;;;;;;1.40;1.30;;;4.80;97.30;;;;;;5030758;28;20687;-84
2022/10/09 06:27:03;;;;;;;3.67;2.33;;;4.80;97.30;;;;;;5031809;28;20267;-82
2022/10/09 06:29:29;;;;;;;1.60;1.50;;;4.90;97.30;;;;;;5033481;28;20267;-82
2022/10/09 06:31:55;;;;;;;2.33;2.13;;;4.90;97.30;;;;;;5034559;28;20250;-79
2022/10/09 06:34:21;;;;;;;2.67;2.47;;;5.00;97.30;;;;;;5033348;28;20871;-82
2022/10/09 06:36:47;;;;;;;1.73;1.63;;;5.10;97.30;;;;;;5021042;28;20851;-82
2022/10/09 06:39:13;;;;;;;4.00;3.47;;;5.20;97.30;;;;;;5028336;28;20438;-83
2022/10/09 06:41:39;;;;;;;2.07;1.93;;;5.20;97.30;;;;;;5033282;28;20465;-78
2022/10/09 06:44:09;;;;;;;1.70;1.50;;;5.30;97.30;;;;;;5032334;28;20515;-81
2022/10/09 06:46:38;;;;;;;2.53;2.30;;;5.40;97.30;;;;;;5036145;28;20175;-82
2022/10/09 06:49:06;;;;;;;2.20;2.00;;;5.50;97.30;;;;;;5053270;28;20413;-82
2022/10/09 06:51:32;;;;;;;5.53;2.10;;;5.60;97.30;;;;;;5034486;28;20577;-83
2022/10/09 06:54:00;;;;;;;1.50;1.40;;;5.70;97.30;;;;;;5034292;28;20489;-83
2022/10/09 06:56:29;;;;;;;7.20;2.73;;;5.80;97.30;;;;;;5029787;28;20418;-83
2022/10/09 06:58:54;;;;;;;2.23;2.03;;;5.90;97.30;;;;;;5033402;28;20414;-81
2022/10/09 07:01:23;;;;;;;2.57;2.37;;;6.00;97.30;;;;;;5033015;28;20537;-83
2022/10/09 07:03:55;;;;;;;2.90;2.70;;;6.10;97.30;;;;;;5030105;28;20459;-83
2022/10/09 07:06:25;;;;;;;3.00;2.50;;;6.30;97.30;;;;;;5035148;28;20415;-80
2022/10/09 07:09:02;;;;;;;1.60;1.50;;;6.40;97.30;;;;;;5032169;28;20551;-84
2022/10/09 07:11:31;;;;;;;3.83;2.10;;;6.50;97.30;;;;;;5029072;28;20897;-82
2022/10/09 07:13:58;;;;;;;2.40;2.20;;;6.70;97.30;;;;;;5025435;28;20422;-78
2022/10/09 07:16:26;;;;;;;3.60;2.50;;;6.80;97.30;;;;;;5022956;28;20414;-79
2022/10/09 07:18:52;;;;;;;1.80;1.70;;;7.00;97.30;;;;;;5031029;28;20425;-82
2022/10/09 07:21:18;;;;;;;2.50;2.07;;;7.10;97.30;;;;;;5052694;28;20519;-83
2022/10/09 07:23:53;;;;;;;6.03;4.03;;;7.20;97.30;;;;;;5035346;28;20204;-84
2022/10/09 07:26:25;;;;;;;2.40;2.03;;;7.40;97.30;;;;;;5050909;28;20456;-82
2022/10/09 07:28:51;;;;;;;5.70;3.00;;;7.50;97.30;;;;;;5033955;28;20442;-79
2022/10/09 07:31:17;;;;;;;1.33;1.23;;;7.60;97.30;;;;;;5051826;28;20983;-79
2022/10/09 07:33:51;;;;;;;2.00;1.90;;;7.80;97.30;;;;;;5032835;28;20422;-79
2022/10/09 07:36:18;;;;;;;2.03;1.77;;;7.90;97.30;;;;;;5050310;28;21017;-80
2022/10/09 07:38:55;;;;;;;2.00;1.90;;;8.00;97.30;;;;;;5035761;28;20434;-84
2022/10/09 07:41:22;;;;;;;6.73;2.90;;;8.20;97.30;;;;;;5057115;28;20445;-81
2022/10/09 07:43:48;;;;;;;2.47;2.07;;;8.30;97.30;;;;;;5051718;28;20525;-81
2022/10/09 07:46:16;;;;;;;9.40;2.43;;;8.40;97.30;;;;;;5028505;28;20496;-80
2022/10/09 07:48:44;;;;;;;6.43;2.77;;;8.60;97.30;;;;;;5031894;28;20192;-79
2022/10/09 07:51:25;;;;;;;1.67;1.57;;;8.70;97.30;;;;;;5027986;28;20431;-80
2022/10/09 07:53:52;;;;;;;1.73;1.70;;;8.80;97.30;;;;;;5029718;28;20461;-81
2022/10/09 07:56:23;;;;;;;4.97;3.57;;;8.90;97.30;;;;;;5028372;28;20446;-81
2022/10/09 07:58:50;;;;;;;1.90;1.80;;;9.10;97.30;;;;;;5029784;28;20430;-83
2022/10/09 08:01:16;;;;;;;7.83;2.97;;;9.20;97.30;;;;;;5025879;28;20442;-80
2022/10/09 08:03:42;;;;;;;3.07;2.70;;;9.30;97.30;;;;;;5022802;28;20459;-79
2022/10/09 08:06:07;;;;;;;2.70;2.53;;;9.40;97.30;;;;;;5028730;28;20996;-81
2022/10/09 08:08:33;;;;;;;4.57;2.30;;;9.50;97.30;;;;;;5039429;28;20177;-79
2022/10/09 08:10:59;;;;;;;4.97;3.23;;;9.60;97.30;;;;;;5037818;28;20219;-80
2022/10/09 08:13:24;;;;;;;3.00;2.77;;;9.80;97.30;;;;;;5040456;28;20207;-82
2022/10/09 08:15:50;;;;;;;3.07;1.90;;;9.90;97.30;;;;;;5030518;28;20180;-82
2022/10/09 08:18:15;;;;;;;3.90;2.90;;;10.00;97.30;;;;;;5056684;28;20708;-83
2022/10/09 08:20:43;;;;;;;4.33;2.70;;;10.10;97.30;;;;;;5034620;28;20199;-78
2022/10/09 08:23:09;;;;;;;2.70;1.60;;;10.20;97.30;;;;;;5038888;28;20254;-82
2022/10/09 08:25:36;;;;;;;3.57;1.60;;;10.30;97.30;;;;;;5033748;28;21213;-79
2022/10/09 08:28:02;;;;;;;2.10;1.83;;;10.40;97.30;;;;;;5028257;28;20188;-82
2022/10/09 08:30:28;;;;;;;2.70;2.50;;;10.60;97.30;;;;;;5033734;28;20438;-81
2022/10/09 08:32:53;;;;;;;1.63;1.60;;;10.70;97.30;;;;;;5033143;28;20453;-82
2022/10/09 08:35:19;;;;;;;4.40;2.50;;;10.80;97.30;;;;;;5034099;28;20187;-83
2022/10/09 08:37:45;;;;;;;2.70;2.50;;;10.90;97.30;;;;;;5038390;28;20176;-82
2022/10/09 08:40:17;;;;;;;6.57;3.10;;;11.00;97.30;;;;;;5038311;28;20202;-83
2022/10/09 08:42:51;;;;;;;4.23;3.17;;;11.10;97.30;;;;;;5038790;28;20167;-83
2022/10/09 08:45:18;;;;;;;2.37;2.17;;;11.20;97.30;;;;;;5035161;28;20431;-83
2022/10/09 08:48:09;;;;;;;2.43;2.27;;;11.40;97.30;;;;;;5038971;28;20434;-80
2022/10/09 08:50:38;;;;;;;2.13;2.00;;;11.50;97.30;;;;;;5032548;28;20500;-79
2022/10/09 08:53:30;;;;;;;2.43;1.73;;;11.60;97.30;;;;;;5036837;28;20939;-81
2022/10/09 08:55:58;;;;;;;3.03;1.20;;;11.60;97.30;;;;;;5038250;28;20414;-80
2022/10/09 08:58:35;;;;;;;2.20;2.00;;;11.80;97.30;;;;;;5051927;28;20428;-83
2022/10/09 09:01:17;;;;;;;2.47;1.60;;;11.90;97.30;;;;;;5025684;28;20489;-82
2022/10/09 09:03:59;;;;;;;2.07;1.57;;;12.00;97.30;;;;;;5032096;28;20480;-83
2022/10/09 09:07:03;;;;;;;5.23;1.50;;;12.10;97.30;;;;;;5033500;28;21043;-82
2022/10/09 09:09:37;;;;;;;1.40;1.30;;;12.30;97.30;;;;;;5029053;28;20537;-80
2022/10/09 09:12:29;;;;;;;1.10;1.00;;;12.40;97.30;;;;;;5032711;28;20431;-82
2022/10/09 09:15:14;;;;;;;2.70;2.13;;;12.50;97.30;;;;;;5033935;28;20513;-80
2022/10/09 09:17:51;;;;;;;2.50;1.70;;;12.70;97.30;;;;;;5030350;28;20423;-80
2022/10/09 09:20:50;;;;;;;9.23;1.97;;;12.70;97.30;;;;;;5027040;28;20442;-83
2022/10/09 09:23:15;;;;;;;4.60;2.30;;;12.90;97.30;;;;;;5028359;28;20558;-83
2022/10/09 09:25:43;;;;;;;2.13;1.50;;;13.00;97.30;;;;;;5044471;28;20447;-81
2022/10/09 09:28:23;;;;;;;1.50;1.40;;;13.10;97.30;;;;;;5038140;28;20710;-81
2022/10/09 09:31:12;;;;;;;6.60;2.10;;;13.20;97.30;;;;;;5036670;28;20503;-82
2022/10/09 09:34:05;;;;;;;2.33;1.53;;;13.30;97.30;;;;;;5049433;28;20429;-82
2022/10/09 09:36:38;;;;;;;1.67;1.60;;;13.40;97.30;;;;;;5051945;28;20467;-81
2022/10/09 09:39:04;;;;;;;1.30;1.20;;;13.50;97.30;;;;;;5036994;28;20422;-83
2022/10/09 09:41:30;;;;;;;2.00;1.90;;;13.60;97.30;;;;;;5022752;28;20446;-82
2022/10/09 09:43:55;;;;;;;1.33;1.23;;;13.70;97.30;;;;;;5028145;28;20211;-82
2022/10/09 09:46:27;;;;;;;2.67;2.47;;;13.70;97.30;;;;;;5054056;28;20873;-80
2022/10/09 09:48:53;;;;;;;2.50;1.23;;;13.80;97.30;;;;;;5036991;28;20190;-79
2022/10/09 09:51:23;;;;;;;3.47;1.77;;;13.90;97.30;;;;;;5036150;28;20875;-81
2022/10/09 09:53:52;;;;;;;3.30;1.77;;;14.00;97.30;;;;;;5037080;28;20192;-82
2022/10/09 09:56:18;;;;;;;1.40;1.30;;;14.10;97.30;;;;;;5036792;28;20440;-82
2022/10/09 09:58:52;;;;;;;1.67;1.27;;;14.20;97.30;;;;;;5036065;28;20499;-82
2022/10/09 10:01:26;;;;;;;1.63;1.10;;;14.30;97.30;;;;;;5033183;28;20434;-78
2022/10/09 10:03:58;;;;;;;19.20;1.77;;;14.40;97.30;;;;;;5036037;28;20638;-82
2022/10/09 10:06:40;;;;;;;1.43;1.33;;;14.50;97.30;;;;;;5036366;28;20422;-79
2022/10/09 10:09:15;;;;;;;1.20;1.10;;;14.50;97.30;;;;;;5042519;28;20538;-79
2022/10/09 10:11:56;;;;;;;1.60;1.30;;;14.60;97.30;;;;;;5047399;28;20513;-79
2022/10/09 10:14:22;;;;;;;1.67;1.57;;;14.70;97.30;;;;;;5032381;28;20414;-80
2022/10/09 10:16:49;;;;;;;1.77;1.03;;;14.80;97.30;;;;;;5027772;28;20501;-82
2022/10/09 10:19:24;;;;;;;3.43;1.73;;;14.90;97.30;;;;;;5036374;28;20234;-82
2022/10/09 10:22:05;;;;;;;4.00;1.70;;;15.00;97.30;;;;;;5051623;28;21000;-78
2022/10/09 10:24:52;;;;;;;5.60;1.53;;;15.10;97.10;;;;;;5030054;28;20454;-79
2022/10/09 10:27:49;;;;;;;2.27;1.63;;;15.20;96.80;;;;;;5035283;28;20881;-82
2022/10/09 10:30:18;;;;;;;1.00;0.87;;;15.30;96.50;;;;;;5032072;28;20804;-80
2022/10/09 10:32:52;;;;;;;1.70;1.47;;;15.40;95.30;;;;;;5035763;28;20471;-81
2022/10/09 10:35:28;;;;;;;4.50;2.63;;;15.50;95.50;;;;;;5029229;28;20516;-83
2022/10/09 10:38:05;;;;;;;2.57;1.80;;;15.50;94.90;;;;;;5029687;28;20422;-79
2022/10/09 10:40:36;;;;;;;1.00;0.90;;;15.50;94.60;;;;;;5035455;28;20449;-82
2022/10/09 10:43:08;;;;;;;1.30;1.20;;;15.60;94.00;;;;;;5035183;28;20411;-80
2022/10/09 10:45:42;;;;;;;1.23;1.13;;;15.70;94.00;;;;;;5034763;28;20497;-80
2022/10/09 10:48:22;;;;;;;13.00;1.80;;;15.80;93.50;;;;;;5032975;28;20422;-78
2022/10/09 10:51:09;;;;;;;1.43;0.97;;;15.90;93.10;;;;;;5044131;28;20492;-81
2022/10/09 10:53:59;;;;;;;1.33;1.23;;;16.00;93.60;;;;;;5029861;28;20419;-79
2022/10/09 10:56:39;;;;;;;2.30;1.33;;;16.10;93.00;;;;;;5030079;28;20454;-82
2022/10/09 10:59:34;;;;;;;0.90;0.80;;;16.20;92.30;;;;;;5033634;28;20438;-82
2022/10/09 11:02:33;;;;;;;6.00;1.13;;;16.30;91.60;;;;;;5027134;28;20433;-81
2022/10/09 11:06:01;;;;;;;1.23;0.90;;;16.50;92.00;;;;;;5028608;28;20624;-78
2022/10/09 11:08:47;;;;;;;1.10;1.00;;;16.70;90.40;;;;;;4944769;28;20422;-77
2022/10/09 11:11:36;;;;;;;1.20;1.10;;;16.80;89.60;;;;;;4957169;28;20465;-78
2022/10/09 11:14:35;;;;;;;1.10;1.00;;;17.00;89.60;;;;;;5035377;28;21631;-79
2022/10/09 11:17:09;;;;;;;1.10;1.00;;;17.10;88.90;;;;;;5022428;28;20829;-81
2022/10/09 11:19:48;;;;;;;1.00;0.90;;;17.20;88.50;;;;;;5026784;28;20433;-81
2022/10/09 11:22:27;;;;;;;1.00;0.90;;;17.30;88.30;;;;;;5026907;28;20527;-79
2022/10/09 11:25:21;;;;;;;3.37;1.43;;;17.40;87.50;;;;;;5050723;28;20967;-78
2022/10/09 11:27:53;;;;;;;1.10;1.00;;;17.40;87.30;;;;;;5029241;28;20410;-78
2022/10/09 11:30:19;;;;;;;7.03;1.10;;;17.60;88.30;;;;;;5032200;28;20474;-82
2022/10/09 11:32:58;;;;;;;6.30;1.10;;;17.70;88.20;;;;;;5020452;28;20928;-78
2022/10/09 11:35:29;;;;;;;6.43;1.93;;;17.90;88.70;;;;;;5030624;28;20562;-81
2022/10/09 11:38:04;;;;;;;1.00;0.90;;;18.00;87.80;;;;;;5031660;28;20438;-82
2022/10/09 11:40:33;;;;;;;2.63;1.30;;;18.00;87.10;;;;;;5022101;28;20429;-82
2022/10/09 11:43:08;;;;;;;1.13;1.00;;;18.00;86.50;;;;;;5025004;28;20458;-78
2022/10/09 11:46:01;;;;;;;2.20;1.10;;;18.00;85.60;;;;;;5026246;28;20442;-79
2022/10/09 11:48:50;;;;;;;1.10;1.00;;;18.00;86.20;;;;;;5027951;28;20441;-79
2022/10/09 11:52:03;;;;;;;;;;;;;;;;;;;;;
2022/10/09 11:54:44;;;;;;;1.07;0.90;;;17.90;84.10;;;;;;5009334;28;20193;-79
2022/10/09 11:57:35;;;;;;;0.93;0.87;;;17.80;85.20;;;;;;5009484;28;20411;-80
2022/10/09 12:00:34;;;;;;;6.17;1.30;;;17.90;85.00;;;;;;5085925;28;20923;-77
2022/10/09 12:03:45;;;;;;;1.87;1.20;;;18.10;84.70;;;;;;5055673;28;20423;-80
2022/10/09 12:06:23;;;;;;;3.03;0.93;;;18.30;83.90;;;;;;5068265;28;20437;-78
2022/10/09 12:10:01;;;;;;;4.03;1.70;;;18.50;84.00;;;;;;5059135;28;20432;-81
2022/10/09 12:12:37;;;;;;;1.10;0.87;;;18.70;83.10;;;;;;5056762;28;20426;-78
2022/10/09 12:15:36;;;;;;;3.37;1.37;;;18.80;81.90;;;;;;5037933;28;20960;-79
2022/10/09 12:18:24;;;;;;;0.80;0.80;;;18.80;82.40;;;;;;5055426;28;20433;-78
2022/10/09 12:20:51;;;;;;;1.10;1.00;;;18.90;82.60;;;;;;5076008;22;20569;-78
2022/10/09 12:23:24;;;;;;;2.07;1.93;;;18.90;81.70;;;;;;5069476;28;20797;-78
2022/10/09 12:25:52;;;;;;;1.20;0.80;;;19.10;82.10;;;;;;5069643;28;20418;-78
2022/10/09 12:28:42;;;;;;;1.30;1.20;;;19.20;81.70;;;;;;5069340;28;20409;-78
2022/10/09 12:32:04;;;;;;;10.83;1.10;;;19.30;81.90;;;;;;5087248;22;20504;-81
2022/10/09 12:35:24;;;;;;;1.20;1.10;;;19.40;80.50;;;;;;5064866;28;20454;-82
2022/10/09 12:38:34;;;;;;;1.00;0.90;;;19.60;81.50;;;;;;4998626;28;20423;-81
2022/10/09 12:41:04;;;;;;;2.00;1.27;;;19.80;81.30;;;;;;4983521;28;20440;-78
2022/10/09 12:43:31;;;;;;;0.90;0.90;;;19.90;80.90;;;;;;5022977;28;20619;-80
2022/10/09 12:45:57;;;;;;;1.57;1.47;;;20.00;80.10;;;;;;5070429;28;20417;-80
2022/10/09 12:48:26;;;;;;;6.93;1.43;;;20.10;80.00;;;;;;5063908;28;20480;-80
2022/10/09 12:50:52;;;;;;;1.10;1.00;;;20.10;79.00;;;;;;5054224;28;25100;-80
2022/10/09 12:53:28;;;;;;;0.80;0.80;;;20.10;78.70;;;;;;5059410;28;20414;-79
2022/10/09 12:55:59;;;;;;;1.07;0.97;;;20.20;77.50;;;;;;5064665;28;20406;-78
2022/10/09 12:58:38;;;;;;;2.50;1.30;;;20.30;78.00;;;;;;5070544;28;20441;-79
2022/10/09 13:01:08;;;;;;;1.00;0.90;;;20.30;77.40;;;;;;5055399;28;21066;-78
2022/10/09 13:03:42;;;;;;;1.00;0.90;;;20.30;78.00;;;;;;5069149;28;20463;-78
2022/10/09 13:06:21;;;;;;;2.03;1.73;;;20.30;77.40;;;;;;5072189;28;20474;-81
2022/10/09 13:08:53;;;;;;;2.87;1.47;;;20.40;78.50;;;;;;5055794;28;20919;-81
2022/10/09 13:11:41;;;;;;;1.33;1.30;;;20.30;77.30;;;;;;5056881;28;21016;-79
2022/10/09 13:14:42;;;;;;;1.10;1.00;;;20.40;78.00;;;;;;5053877;28;20796;-82
2022/10/09 13:17:30;;;;;;;0.80;0.80;;;20.50;78.30;;;;;;5055025;28;20416;-79
2022/10/09 13:20:18;;;;;;;1.00;0.93;;;20.60;78.30;;;;;;5059850;28;21194;-78
2022/10/09 13:22:55;;;;;;;1.07;0.97;;;20.60;77.90;;;;;;5044833;28;20492;-80